Latest Coastal Weather Observations for Flinders Island Airport

IDT60701

Issued at 8:42 pm EST Sunday 16 June 2019 (issued every 10 minutes, with the page automatically refreshed every 10 minutes)

About coastal observations | Map of coastal stations | Coastal observations for TAS | Marine services | Other Formats
Station Details ID: 099005 Name: FLINDERS ISLAND AIRPORT Lat: -40.09 Lon: 148.00 Height: 9.0 m
Data from the previous 72 hours. | See also: Recent months at Flinders Island Airport
Date/Time
EST
Wind Sea
Height
m
Swell Vis
km
Cloud Weather Temp
°C
Press
hPa
Rain since
9am
mm
Dir  Spd
kts
Gust
kts
Height
m
Period
s
Dir
16/08:30pm ENE 8 9 - - - - 10 Partly cloudy - 7.0 1022.4 0.0
16/08:00pm NE 7 8 - - - - 10 - - 6.7 1022.4 0.0
16/07:30pm ENE 6 7 - - - - 10 - - 7.0 1022.3 0.0
16/07:00pm NE 5 6 - - - - 10 Partly cloudy - 8.3 1022.1 0.0
16/06:30pm NE 5 5 - - - - 10 - - 7.3 1021.8 0.0
16/06:00pm NNE 4 5 - - - - 10 Partly cloudy - 9.2 1021.6 0.0
16/05:30pm N 5 5 - - - - 10 Partly cloudy - 10.8 1021.5 0.0
16/05:00pm NNW 4 5 - - - - 10 Cloudy - 11.8 1021.3 0.0
16/04:30pm WNW 5 6 - - - - 10 Partly cloudy - 12.3 1021.3 0.0
16/04:00pm WNW 6 8 - - - - 10 Partly cloudy - 12.8 1021.1 0.0
16/03:30pm WNW 6 7 - - - - 10 Partly cloudy - 13.1 1021.1 0.0
16/03:00pm WNW 9 11 - - - - 10 Partly cloudy - 13.2 1021.3 0.0
16/02:30pm WNW 8 11 - - - - 10 - - 14.0 1021.2 0.0
16/02:00pm W 8 9 - - - - 10 - - 13.4 1021.3 0.0
16/01:30pm WNW 8 10 - - - - 10 - - 13.3 1021.4 0.0
16/01:00pm WNW 7 10 - - - - 10 Partly cloudy - 13.2 1021.5 0.0
16/12:30pm NW 7 9 - - - - 10 Partly cloudy - 12.5 1021.7 0.0
16/12:00pm NW 6 8 - - - - 10 Partly cloudy - 13.2 1022.1 0.0
16/11:30am NW 5 8 - - - - 10 - - 13.3 1022.4 0.0
16/11:00am WNW 5 6 - - - - 10 Partly cloudy - 12.5 1022.7 0.0
16/10:30am NNW 5 6 - - - - 10 - - 12.2 1022.9 0.0
16/10:00am N 4 5 - - - - 10 Partly cloudy - 11.6 1022.7 0.0
16/09:30am NE 4 6 - - - - 10 Partly cloudy - 9.6 1022.6 0.0
16/09:00am NNE 4 5 - - - - 10 Cloudy - 9.8 1022.4 0.6
16/08:30am NE 5 6 - - - - 10 Partly cloudy - 8.7 1022.3 0.6
16/08:00am NE 4 5 - - - - 8 Partly cloudy - 8.3 1022.0 0.6
16/07:30am ENE 6 7 - - - - 10 - - 6.5 1021.7 0.4
16/07:09am E 4 5 - - - - 10 Partly cloudy - 7.3 1021.6 0.4
16/07:00am E 4 5 - - - - 6 Partly cloudy - 7.6 1021.5 0.4
16/06:56am ESE 4 5 - - - - 5 Partly cloudy - 7.7 1021.4 0.4
16/06:30am E 5 7 - - - - 10 Partly cloudy - 6.9 1021.2 0.0
16/06:00am ENE 7 8 - - - - 10 Cloudy - 6.8 1021.0 0.0
16/05:30am ENE 7 8 - - - - 10 Partly cloudy - 6.5 1020.8 0.0
16/05:00am ENE 7 7 - - - - 10 Partly cloudy - 5.7 1020.7 0.0
16/04:30am ENE 6 6 - - - - 10 - - 5.5 1020.6 0.0
16/04:00am ENE 7 7 - - - - 10 Partly cloudy - 5.2 1020.7 0.0
16/03:30am NE 7 8 - - - - 10 Partly cloudy - 5.6 1020.7 0.0
16/03:00am ENE 5 6 - - - - 10 Mostly cloudy - 6.4 1020.9 0.0
16/02:30am ENE 7 8 - - - - 10 Partly cloudy - 6.4 1020.9 0.0
16/02:00am ENE 8 9 - - - - 10 Partly cloudy - 6.7 1020.9 0.0
16/01:30am ENE 7 8 - - - - 10 Cloudy - 5.7 1020.9 0.0
16/01:00am ENE 8 9 - - - - 10 Partly cloudy - 4.7 1020.9 0.0
16/12:30am ENE 6 7 - - - - 10 - - 4.6 1021.0 0.0
16/12:00am ENE 5 6 - - - - 10 - - 4.6 1021.1 0.0
 
Date/Time
EST
Wind Sea
Height
m
Swell Vis
km
Cloud Weather Temp
°C
Press
hPa
Rain since
9am
mm
Dir  Spd
kts
Gust
kts
Height
m
Period
s
Dir
15/11:30pm ENE 6 7 - - - - 10 - - 4.1 1021.2 0.0
15/11:00pm ENE 6 7 - - - - 10 - - 4.4 1021.3 0.0
15/10:30pm ENE 7 7 - - - - 10 - - 4.6 1021.3 0.0
15/10:00pm ENE 5 6 - - - - 10 - - 5.0 1021.3 0.0
15/09:30pm ENE 7 8 - - - - 10 Partly cloudy - 5.5 1021.4 0.0
15/09:00pm ENE 6 7 - - - - 10 Mostly clear - 5.6 1021.2 0.0
15/08:30pm ENE 6 6 - - - - 10 - - 5.4 1021.2 0.0
15/08:00pm NE 5 6 - - - - 10 - - 5.6 1021.1 0.0
15/07:30pm NE 4 5 - - - - 10 Partly cloudy - 6.3 1021.0 0.0
15/07:00pm W 7 10 - - - - 10 Partly cloudy - 6.2 1020.8 0.0
15/06:30pm W 7 10 - - - - 10 - - 6.4 1020.4 0.0
15/06:00pm W 7 9 - - - - 10 - - 9.9 1020.2 0.0
15/05:30pm W 7 9 - - - - 10 - - 10.5 1019.8 0.0
15/05:00pm W 8 9 - - - - 10 - - 11.1 1019.7 0.0
15/04:30pm W 9 11 - - - - 10 - - 11.8 1019.4 0.0
15/04:00pm W 9 11 - - - - 10 - - 12.5 1019.2 0.0
15/03:30pm W 10 12 - - - - 10 - - 13.2 1019.0 0.0
15/03:00pm W 10 13 - - - - 10 - - 13.3 1018.9 0.0
15/02:30pm W 10 11 - - - - 10 - - 13.6 1018.7 0.0
15/02:00pm WSW 9 11 - - - - 10 - - 13.5 1018.6 0.0
15/01:30pm W 10 12 - - - - 10 - - 13.4 1018.7 0.0
15/01:00pm W 13 16 - - - - 10 Partly cloudy - 13.6 1018.6 0.0
15/12:30pm WSW 13 16 - - - - 10 Partly cloudy - 13.7 1018.8 0.0
15/12:00pm WSW 13 16 - - - - 10 Mostly clear - 13.4 1019.0 0.0
15/11:30am WSW 13 16 - - - - 10 Partly cloudy - 13.5 1019.1 0.0
15/11:00am W 10 15 - - - - 10 Partly cloudy - 13.5 1019.4 0.0
15/10:30am WSW 16 19 - - - - 10 Partly cloudy - 12.5 1019.5 0.0
15/10:00am W 13 15 - - - - 10 Partly cloudy - 12.9 1019.2 0.0
15/09:30am W 11 14 - - - - 10 Partly cloudy - 13.0 1018.8 0.0
15/09:00am WSW 10 15 - - - - 10 Cloudy - 12.5 1018.6 3.4
15/08:30am W 9 13 - - - - 10 Partly cloudy - 12.4 1018.3 3.4
15/08:00am WNW 10 15 - - - - 10 - - 11.6 1018.0 3.4
15/07:30am W 11 15 - - - - 10 Partly cloudy - 11.5 1017.6 3.4
15/07:00am W 11 16 - - - - 10 Partly cloudy - 12.0 1017.4 3.4
15/06:30am WNW 10 13 - - - - 10 Partly cloudy - 12.0 1017.0 3.4
15/06:00am W 11 14 - - - - 10 Cloudy - 12.0 1016.7 3.4
15/05:30am W 11 15 - - - - 10 Partly cloudy - 11.8 1016.4 3.4
15/05:00am W 15 18 - - - - 10 Partly cloudy - 11.8 1016.2 3.4
15/04:30am WNW 11 15 - - - - 10 Partly cloudy - 11.3 1016.0 3.4
15/04:28am WNW 12 16 - - - - 10 Partly cloudy - 11.4 1016.0 3.4
15/04:10am W 13 17 - - - - 10 Partly cloudy - 12.3 1015.9 3.4
15/04:00am W 12 16 - - - - 10 Partly cloudy - 12.2 1015.8 3.4
15/03:30am W 13 15 - - - - 10 Partly cloudy - 12.0 1015.7 3.4
15/03:00am W 12 15 - - - - 10 Cloudy - 12.2 1015.7 3.4
15/02:30am WNW 11 14 - - - - 10 Partly cloudy - 12.0 1015.8 3.4
15/02:00am WNW 12 15 - - - - 10 Partly cloudy - 11.9 1015.8 3.4
15/01:30am W 13 18 - - - - 10 Partly cloudy - 12.0 1015.7 3.4
15/01:00am WNW 13 17 - - - - 10 Partly cloudy - 11.7 1015.6 3.4
15/12:41am WNW 13 18 - - - - 10 Partly cloudy - 11.6 1015.6 3.4
15/12:30am W 16 23 - - - - 5 Partly cloudy - 11.7 1015.6 3.2
15/12:27am W 14 23 - - - - 5 Partly cloudy - 11.8 1015.6 3.2
15/12:20am WNW 11 15 - - - - 10 Partly cloudy - 11.8 1015.6 2.8
15/12:01am W 15 22 - - - - 5 Partly cloudy - 12.0 1015.6 2.8
15/12:00am W 15 22 - - - - 6 Cloudy Rain 12.1 1015.6 2.8
 
Date/Time
EST
Wind Sea
Height
m
Swell Vis
km
Cloud Weather Temp
°C
Press
hPa
Rain since
9am
mm
Dir  Spd
kts
Gust
kts
Height
m
Period
s
Dir
14/11:30pm WNW 14 17 - - - - 10 Partly cloudy - 12.4 1015.6 2.6
14/11:00pm WNW 15 19 - - - - 10 Partly cloudy - 12.4 1015.4 2.6
14/10:30pm WNW 13 16 - - - - 10 - - 12.1 1015.5 2.6
14/10:00pm WNW 14 22 - - - - 10 Partly cloudy - 12.6 1015.4 2.6
14/09:30pm WNW 14 18 - - - - 10 Partly cloudy - 12.7 1015.2 2.6
14/09:00pm W 16 21 - - - - 10 Partly cloudy - 12.6 1015.1 2.6
14/08:30pm WNW 17 21 - - - - 10 Partly cloudy - 12.8 1014.9 2.6
14/08:00pm WNW 16 22 - - - - 10 Partly cloudy - 12.6 1014.6 2.6
14/07:30pm WNW 14 18 - - - - 10 Partly cloudy - 12.7 1014.4 2.6
14/07:00pm WNW 16 20 - - - - 10 Partly cloudy - 12.6 1014.3 2.6
14/06:30pm WNW 16 24 - - - - 10 Partly cloudy - 12.4 1014.0 2.6
14/06:00pm WNW 16 22 - - - - 10 Cloudy - 12.2 1013.7 2.6
14/05:30pm WNW 14 21 - - - - 10 Partly cloudy - 12.4 1013.4 2.6
14/05:00pm WNW 17 22 - - - - 10 Partly cloudy - 12.4 1013.4 2.6
14/04:30pm WNW 16 21 - - - - 10 Partly cloudy - 12.1 1013.3 2.6
14/04:00pm WNW 18 25 - - - - 10 Partly cloudy - 12.2 1013.3 2.6
14/03:30pm WNW 15 20 - - - - 10 Partly cloudy - 11.3 1013.3 2.6
14/03:11pm WNW 21 26 - - - - 10 Partly cloudy - 11.4 1013.2 2.6
14/03:00pm W 18 25 - - - - 5 Cloudy Rain 11.4 1013.1 2.6
14/02:55pm WNW 16 22 - - - - 5 Partly cloudy - 12.0 1013.1 2.4
14/02:30pm W 16 20 - - - - 7 Partly cloudy - 12.0 1012.9 1.6
14/02:02pm W 15 17 - - - - 10 Partly cloudy - 11.7 1013.0 0.8
14/02:00pm W 15 18 - - - - 10 Partly cloudy - 11.5 1013.0 0.8
14/01:39pm WNW 19 26 - - - - 5 Partly cloudy - 12.0 1013.2 0.2
14/01:30pm WNW 17 22 - - - - 10 Partly cloudy - 13.3 1013.1 0.0
14/01:00pm WNW 16 21 - - - - 10 Partly cloudy - 13.5 1013.3 0.0
14/12:30pm WNW 16 24 - - - - 10 Partly cloudy - 13.9 1013.5 0.0
14/12:25pm WNW 16 26 - - - - 10 Partly cloudy - 14.3 1013.7 0.0
14/12:00pm WNW 13 19 - - - - 10 Partly cloudy - 13.3 1013.9 0.0
14/11:30am WNW 16 24 - - - - 10 Partly cloudy - 12.9 1014.2 0.0
14/11:22am WNW 15 26 - - - - 10 Partly cloudy - 12.7 1014.3 0.0
14/11:00am WNW 11 15 - - - - 10 Partly cloudy - 12.3 1014.8 0.0
14/10:30am WNW 13 17 - - - - 10 Partly cloudy - 13.3 1014.9 0.0
14/10:00am NW 10 14 - - - - 10 Partly cloudy - 12.3 1015.1 0.0
14/09:30am WNW 15 18 - - - - 10 Partly cloudy - 12.7 1014.8 0.0
14/09:00am WNW 11 15 - - - - 10 Partly cloudy - 12.5 1014.6 2.6
14/08:30am WNW 11 15 - - - - 10 Partly cloudy - 12.1 1014.5 2.6
14/08:00am WNW 14 18 - - - - 10 Partly cloudy - 12.1 1014.4 2.6
14/07:30am WNW 13 17 - - - - 10 - - 11.6 1014.3 2.6
14/07:00am WNW 15 18 - - - - 10 - - 11.8 1014.0 2.6
14/06:30am W 12 16 - - - - 10 - - 11.8 1013.9 2.6
14/06:00am W 15 18 - - - - 10 Mostly clear - 11.6 1013.6 2.6
14/05:30am W 18 23 - - - - 10 - - 11.9 1013.5 2.6
14/05:00am W 18 23 - - - - 10 Partly cloudy - 12.0 1013.3 2.6
14/04:30am W 18 22 - - - - 10 Partly cloudy - 12.0 1013.3 2.6
14/04:00am W 17 22 - - - - 10 - - 11.6 1013.0 2.6
14/03:30am W 21 27 - - - - 10 Partly cloudy - 11.3 1013.1 2.6
14/03:13am W 18 30 - - - - 10 Partly cloudy - 12.2 1013.0 2.6
14/03:00am W 16 23 - - - - 10 - - 12.0 1013.0 2.6
14/02:30am W 18 26 - - - - 10 - - 12.1 1013.0 2.6
14/02:00am W 18 26 - - - - 10 Partly cloudy - 11.8 1013.0 2.6
14/01:30am W 18 27 - - - - 10 Partly cloudy - 12.3 1012.9 2.6
14/01:28am W 17 27 - - - - 10 Partly cloudy - 12.2 1012.9 2.6
14/01:00am WNW 17 22 - - - - 10 Partly cloudy - 12.1 1012.9 2.6
14/12:30am W 23 27 - - - - 10 Partly cloudy - 11.4 1013.0 2.6
14/12:00am W 19 26 - - - - 10 Partly cloudy Recent precip. 12.2 1013.0 2.6
 
Date/Time
EST
Wind Sea
Height
m
Swell Vis
km
Cloud Weather Temp
°C
Press
hPa
Rain since
9am
mm
Dir  Spd
kts
Gust
kts
Height
m
Period
s
Dir
13/11:30pm W 19 22 - - - - 10 Partly cloudy - 11.7 1013.0 2.6
13/11:00pm W 17 22 - - - - 10 Partly cloudy - 12.6 1012.9 2.4
13/10:30pm W 19 26 - - - - 10 Partly cloudy - 12.3 1012.8 2.4
13/10:00pm W 20 26 - - - - 10 Partly cloudy - 12.5 1012.6 2.4
13/09:30pm W 19 24 - - - - 10 - - 12.3 1012.5 2.4
13/09:00pm W 21 28 - - - - 10 - - 12.6 1012.5 2.4

Other formats

Comma delimited format used in spreadsheet applications
http://www.bom.gov.au/fwo/IDT60701/IDT60701.94980.axf

JavaScript Object Notation format (JSON) in row-major order
http://www.bom.gov.au/fwo/IDT60701/IDT60701.94980.json

Data quality

Most of these data are generated automatically and are frequently updated. Quality checks on data are not normally performed. It is possible for incorrect values to appear. Refer to information at About Latest Weather Observations and please check the disclaimer before using these data.